Bliss, Idaho
Current Conditions -  °F | °C
As of 2:53 PM on Saturday 25 Oct 2014 (Local Time) from KJER Reporting Station
Clear Clear  
Wind Chill: 75°   Ceiling: Unl
Heat Index: 75°   Visibility: 10mi
Dew Point: 28°   Wind: 9mph
Humidity: 18%   Direction: 200°SSW
Pressure: 29.86"   Gusts: NA
Location:  42.93°N, 114.95°W
Report Text: KJER 252053Z AUTO 20008KT 10SM CLR 24/M02 A2986 RMK AO2 SLP083 T02391022 58017
Loading
Personal Weather Stations






























Interactive Weather Map
Tropical Storm Tracking
New forecast layout! Learn more

10-Day Weather Forecast

Advertisements
Track Severe Weather on mobile